sensor_id;sensor_type;location;lat;lon;timestamp;P1;durP1;ratioP1;P2;durP2;ratioP2
60241;SDS011;46103;52.076;113.488;2023-07-29T00:02:03;18.38;;;11.98;;
60241;SDS011;46103;52.076;113.488;2023-07-29T00:05:07;18.65;;;11.40;;
60241;SDS011;46103;52.076;113.488;2023-07-29T00:08:11;17.20;;;11.20;;
60241;SDS011;46103;52.076;113.488;2023-07-29T00:11:15;16.23;;;11.50;;
60241;SDS011;46103;52.076;113.488;2023-07-29T00:14:19;19.98;;;12.68;;
60241;SDS011;46103;52.076;113.488;2023-07-29T00:17:23;17.92;;;11.75;;
60241;SDS011;46103;52.076;113.488;2023-07-29T00:20:27;19.48;;;11.73;;
60241;SDS011;46103;52.076;113.488;2023-07-29T00:23:31;14.57;;;11.00;;
60241;SDS011;46103;52.076;113.488;2023-07-29T00:26:37;17.20;;;10.93;;
60241;SDS011;46103;52.076;113.488;2023-07-29T00:29:40;14.50;;;10.68;;
60241;SDS011;46103;52.076;113.488;2023-07-29T00:32:44;15.20;;;9.90;;
60241;SDS011;46103;52.076;113.488;2023-07-29T00:35:49;14.07;;;9.65;;
60241;SDS011;46103;52.076;113.488;2023-07-29T00:38:53;15.80;;;9.70;;
60241;SDS011;46103;52.076;113.488;2023-07-29T00:42:00;13.40;;;9.63;;
60241;SDS011;46103;52.076;113.488;2023-07-29T00:45:04;13.52;;;9.48;;
60241;SDS011;46103;52.076;113.488;2023-07-29T00:48:11;12.52;;;8.32;;
60241;SDS011;46103;52.076;113.488;2023-07-29T00:51:19;9.98;;;6.90;;
60241;SDS011;46103;52.076;113.488;2023-07-29T00:54:24;10.10;;;6.63;;
60241;SDS011;46103;52.076;113.488;2023-07-29T00:57:30;9.10;;;6.95;;
60241;SDS011;46103;52.076;113.488;2023-07-29T01:00:38;9.27;;;6.10;;
60241;SDS011;46103;52.076;113.488;2023-07-29T01:03:43;9.88;;;5.43;;
60241;SDS011;46103;52.076;113.488;2023-07-29T01:10:14;9.20;;;6.60;;
60241;SDS011;46103;52.076;113.488;2023-07-29T01:13:33;8.40;;;5.70;;
60241;SDS011;46103;52.076;113.488;2023-07-29T01:16:43;7.90;;;5.93;;
60241;SDS011;46103;52.076;113.488;2023-07-29T01:20:08;7.90;;;5.97;;
60241;SDS011;46103;52.076;113.488;2023-07-29T01:23:23;8.30;;;7.03;;
60241;SDS011;46103;52.076;113.488;2023-07-29T01:26:30;7.05;;;5.47;;
60241;SDS011;46103;52.076;113.488;2023-07-29T01:29:41;6.63;;;3.95;;
60241;SDS011;46103;52.076;113.488;2023-07-29T01:36:03;6.47;;;4.60;;
60241;SDS011;46103;52.076;113.488;2023-07-29T01:39:16;7.57;;;5.60;;
60241;SDS011;46103;52.076;113.488;2023-07-29T01:42:36;6.75;;;5.95;;
60241;SDS011;46103;52.076;113.488;2023-07-29T01:45:42;6.82;;;5.13;;
60241;SDS011;46103;52.076;113.488;2023-07-29T01:48:51;6.97;;;4.80;;
60241;SDS011;46103;52.076;113.488;2023-07-29T01:52:01;7.90;;;5.38;;
60241;SDS011;46103;52.076;113.488;2023-07-29T01:55:07;10.00;;;6.10;;
60241;SDS011;46103;52.076;113.488;2023-07-29T01:58:13;11.55;;;6.10;;
60241;SDS011;46103;52.076;113.488;2023-07-29T02:01:25;9.10;;;6.47;;
60241;SDS011;46103;52.076;113.488;2023-07-29T02:04:32;8.15;;;5.75;;
60241;SDS011;46103;52.076;113.488;2023-07-29T02:07:43;9.07;;;6.05;;
60241;SDS011;46103;52.076;113.488;2023-07-29T02:17:04;8.85;;;6.05;;
60241;SDS011;46103;52.076;113.488;2023-07-29T02:20:10;9.98;;;6.68;;
60241;SDS011;46103;52.076;113.488;2023-07-29T02:23:17;9.75;;;7.15;;
60241;SDS011;46103;52.076;113.488;2023-07-29T02:26:23;9.43;;;6.45;;
60241;SDS011;46103;52.076;113.488;2023-07-29T02:29:31;12.88;;;6.57;;
60241;SDS011;46103;52.076;113.488;2023-07-29T02:32:40;11.90;;;6.60;;
60241;SDS011;46103;52.076;113.488;2023-07-29T02:35:48;10.05;;;7.07;;
60241;SDS011;46103;52.076;113.488;2023-07-29T02:39:06;9.43;;;6.50;;
60241;SDS011;46103;52.076;113.488;2023-07-29T02:42:14;7.45;;;5.57;;
60241;SDS011;46103;52.076;113.488;2023-07-29T02:45:23;10.05;;;6.78;;
60241;SDS011;46103;52.076;113.488;2023-07-29T02:48:30;9.93;;;6.68;;
60241;SDS011;46103;52.076;113.488;2023-07-29T02:51:36;11.75;;;7.28;;
60241;SDS011;46103;52.076;113.488;2023-07-29T02:54:47;9.52;;;6.95;;
60241;SDS011;46103;52.076;113.488;2023-07-29T02:57:58;9.98;;;7.35;;
60241;SDS011;46103;52.076;113.488;2023-07-29T03:01:13;11.60;;;7.15;;
60241;SDS011;46103;52.076;113.488;2023-07-29T03:04:21;9.98;;;6.53;;
60241;SDS011;46103;52.076;113.488;2023-07-29T03:07:36;8.18;;;5.70;;
60241;SDS011;46103;52.076;113.488;2023-07-29T03:10:43;8.10;;;6.32;;
60241;SDS011;46103;52.076;113.488;2023-07-29T03:13:50;9.45;;;6.80;;
60241;SDS011;46103;52.076;113.488;2023-07-29T03:17:03;10.13;;;7.47;;
60241;SDS011;46103;52.076;113.488;2023-07-29T03:20:10;9.82;;;6.60;;
60241;SDS011;46103;52.076;113.488;2023-07-29T03:23:19;9.40;;;5.90;;
60241;SDS011;46103;52.076;113.488;2023-07-29T03:26:25;9.88;;;7.00;;
60241;SDS011;46103;52.076;113.488;2023-07-29T03:29:34;11.35;;;7.22;;
60241;SDS011;46103;52.076;113.488;2023-07-29T03:32:43;8.65;;;6.38;;
60241;SDS011;46103;52.076;113.488;2023-07-29T03:36:07;9.48;;;6.93;;
60241;SDS011;46103;52.076;113.488;2023-07-29T03:39:15;7.32;;;5.93;;
60241;SDS011;46103;52.076;113.488;2023-07-29T03:42:34;9.30;;;6.55;;
60241;SDS011;46103;52.076;113.488;2023-07-29T03:45:45;8.35;;;5.85;;
60241;SDS011;46103;52.076;113.488;2023-07-29T03:48:52;10.70;;;6.60;;
60241;SDS011;46103;52.076;113.488;2023-07-29T03:52:03;7.82;;;6.07;;
60241;SDS011;46103;52.076;113.488;2023-07-29T03:55:22;8.20;;;6.22;;
60241;SDS011;46103;52.076;113.488;2023-07-29T03:58:30;9.70;;;6.18;;
60241;SDS011;46103;52.076;113.488;2023-07-29T04:01:36;10.90;;;6.00;;
60241;SDS011;46103;52.076;113.488;2023-07-29T04:04:43;8.48;;;6.13;;
60241;SDS011;46103;52.076;113.488;2023-07-29T04:08:00;8.15;;;6.35;;
60241;SDS011;46103;52.076;113.488;2023-07-29T04:11:06;9.88;;;6.97;;
60241;SDS011;46103;52.076;113.488;2023-07-29T04:14:13;9.93;;;6.90;;
60241;SDS011;46103;52.076;113.488;2023-07-29T04:17:20;11.10;;;7.03;;
60241;SDS011;46103;52.076;113.488;2023-07-29T04:20:39;8.73;;;6.18;;
60241;SDS011;46103;52.076;113.488;2023-07-29T04:23:49;8.40;;;6.43;;
60241;SDS011;46103;52.076;113.488;2023-07-29T04:26:58;8.77;;;6.20;;
60241;SDS011;46103;52.076;113.488;2023-07-29T04:33:12;8.57;;;5.90;;
60241;SDS011;46103;52.076;113.488;2023-07-29T04:36:19;7.35;;;5.97;;
60241;SDS011;46103;52.076;113.488;2023-07-29T04:39:27;7.82;;;5.47;;
60241;SDS011;46103;52.076;113.488;2023-07-29T04:42:41;8.07;;;5.30;;
60241;SDS011;46103;52.076;113.488;2023-07-29T04:45:48;7.50;;;5.57;;
60241;SDS011;46103;52.076;113.488;2023-07-29T04:48:56;7.35;;;6.13;;
60241;SDS011;46103;52.076;113.488;2023-07-29T04:52:02;8.57;;;6.07;;
60241;SDS011;46103;52.076;113.488;2023-07-29T04:55:08;7.57;;;5.88;;
60241;SDS011;46103;52.076;113.488;2023-07-29T04:58:15;7.50;;;5.72;;
60241;SDS011;46103;52.076;113.488;2023-07-29T05:01:22;7.43;;;6.05;;
60241;SDS011;46103;52.076;113.488;2023-07-29T05:04:42;8.25;;;5.78;;
60241;SDS011;46103;52.076;113.488;2023-07-29T05:07:50;7.22;;;5.22;;
60241;SDS011;46103;52.076;113.488;2023-07-29T05:10:58;6.20;;;5.18;;
60241;SDS011;46103;52.076;113.488;2023-07-29T05:14:17;6.30;;;5.45;;
60241;SDS011;46103;52.076;113.488;2023-07-29T05:17:24;7.85;;;5.43;;
60241;SDS011;46103;52.076;113.488;2023-07-29T05:20:42;7.40;;;6.43;;
60241;SDS011;46103;52.076;113.488;2023-07-29T05:27:08;7.75;;;6.05;;
60241;SDS011;46103;52.076;113.488;2023-07-29T05:30:15;8.82;;;6.00;;
60241;SDS011;46103;52.076;113.488;2023-07-29T05:33:23;10.00;;;6.53;;
60241;SDS011;46103;52.076;113.488;2023-07-29T05:36:32;9.40;;;6.88;;
60241;SDS011;46103;52.076;113.488;2023-07-29T05:39:45;9.70;;;6.35;;
60241;SDS011;46103;52.076;113.488;2023-07-29T05:42:52;11.10;;;6.70;;
60241;SDS011;46103;52.076;113.488;2023-07-29T05:45:59;10.45;;;6.00;;
60241;SDS011;46103;52.076;113.488;2023-07-29T05:49:07;10.27;;;6.45;;
60241;SDS011;46103;52.076;113.488;2023-07-29T05:52:16;10.65;;;6.47;;
60241;SDS011;46103;52.076;113.488;2023-07-29T05:58:32;9.95;;;6.22;;
60241;SDS011;46103;52.076;113.488;2023-07-29T06:01:39;9.77;;;6.55;;
60241;SDS011;46103;52.076;113.488;2023-07-29T06:04:58;10.25;;;6.78;;
60241;SDS011;46103;52.076;113.488;2023-07-29T06:08:04;8.45;;;6.38;;
60241;SDS011;46103;52.076;113.488;2023-07-29T06:11:25;9.38;;;6.45;;
60241;SDS011;46103;52.076;113.488;2023-07-29T06:14:32;7.72;;;6.13;;
60241;SDS011;46103;52.076;113.488;2023-07-29T06:17:46;7.40;;;5.60;;
60241;SDS011;46103;52.076;113.488;2023-07-29T06:20:55;9.27;;;5.82;;
60241;SDS011;46103;52.076;113.488;2023-07-29T06:24:14;7.13;;;6.15;;
60241;SDS011;46103;52.076;113.488;2023-07-29T06:27:33;7.65;;;5.78;;
60241;SDS011;46103;52.076;113.488;2023-07-29T06:30:49;7.80;;;5.68;;
60241;SDS011;46103;52.076;113.488;2023-07-29T06:34:07;6.72;;;5.32;;
60241;SDS011;46103;52.076;113.488;2023-07-29T06:37:14;6.85;;;5.32;;
60241;SDS011;46103;52.076;113.488;2023-07-29T06:40:20;7.63;;;5.90;;
60241;SDS011;46103;52.076;113.488;2023-07-29T06:43:39;7.47;;;5.50;;
60241;SDS011;46103;52.076;113.488;2023-07-29T06:46:45;6.30;;;5.65;;
60241;SDS011;46103;52.076;113.488;2023-07-29T06:50:04;6.43;;;5.28;;
60241;SDS011;46103;52.076;113.488;2023-07-29T06:53:10;6.30;;;5.38;;
60241;SDS011;46103;52.076;113.488;2023-07-29T06:56:19;6.65;;;5.53;;
60241;SDS011;46103;52.076;113.488;2023-07-29T06:59:38;6.35;;;5.65;;
60241;SDS011;46103;52.076;113.488;2023-07-29T07:02:57;6.60;;;5.53;;
60241;SDS011;46103;52.076;113.488;2023-07-29T07:06:05;6.28;;;5.43;;
60241;SDS011;46103;52.076;113.488;2023-07-29T07:09:25;6.65;;;6.05;;
60241;SDS011;46103;52.076;113.488;2023-07-29T07:12:43;6.07;;;5.47;;
60241;SDS011;46103;52.076;113.488;2023-07-29T07:15:53;8.23;;;7.43;;
60241;SDS011;46103;52.076;113.488;2023-07-29T07:19:13;7.82;;;7.13;;
60241;SDS011;46103;52.076;113.488;2023-07-29T07:22:21;6.75;;;6.05;;
60241;SDS011;46103;52.076;113.488;2023-07-29T07:25:40;6.78;;;6.18;;
60241;SDS011;46103;52.076;113.488;2023-07-29T07:28:48;6.75;;;6.05;;
60241;SDS011;46103;52.076;113.488;2023-07-29T07:32:08;7.20;;;6.50;;
60241;SDS011;46103;52.076;113.488;2023-07-29T07:38:34;7.55;;;6.85;;
60241;SDS011;46103;52.076;113.488;2023-07-29T07:41:42;8.90;;;8.20;;
60241;SDS011;46103;52.076;113.488;2023-07-29T07:45:00;8.25;;;7.70;;
60241;SDS011;46103;52.076;113.488;2023-07-29T07:48:14;9.82;;;9.13;;
60241;SDS011;46103;52.076;113.488;2023-07-29T07:51:22;8.77;;;8.07;;
60241;SDS011;46103;52.076;113.488;2023-07-29T07:54:35;9.20;;;8.50;;
60241;SDS011;46103;52.076;113.488;2023-07-29T08:00:51;12.02;;;11.43;;
60241;SDS011;46103;52.076;113.488;2023-07-29T08:03:59;9.02;;;8.45;;
60241;SDS011;46103;52.076;113.488;2023-07-29T08:07:06;10.57;;;9.88;;
60241;SDS011;46103;52.076;113.488;2023-07-29T08:10:12;12.77;;;11.98;;
60241;SDS011;46103;52.076;113.488;2023-07-29T08:13:20;13.07;;;12.30;;
60241;SDS011;46103;52.076;113.488;2023-07-29T08:16:27;12.52;;;11.73;;
60241;SDS011;46103;52.076;113.488;2023-07-29T08:19:36;11.48;;;10.77;;
60241;SDS011;46103;52.076;113.488;2023-07-29T08:22:42;13.30;;;12.60;;
60241;SDS011;46103;52.076;113.488;2023-07-29T08:25:56;15.73;;;14.93;;
60241;SDS011;46103;52.076;113.488;2023-07-29T08:29:06;16.92;;;16.20;;
60241;SDS011;46103;52.076;113.488;2023-07-29T08:32:13;14.77;;;14.07;;
60241;SDS011;46103;52.076;113.488;2023-07-29T08:35:19;17.00;;;16.20;;
60241;SDS011;46103;52.076;113.488;2023-07-29T08:38:25;19.67;;;18.77;;
60241;SDS011;46103;52.076;113.488;2023-07-29T08:41:33;18.80;;;18.05;;
60241;SDS011;46103;52.076;113.488;2023-07-29T08:44:49;22.52;;;21.63;;
60241;SDS011;46103;52.076;113.488;2023-07-29T08:47:56;18.35;;;17.55;;
60241;SDS011;46103;52.076;113.488;2023-07-29T08:51:06;19.55;;;18.75;;
60241;SDS011;46103;52.076;113.488;2023-07-29T08:54:13;25.85;;;24.85;;
60241;SDS011;46103;52.076;113.488;2023-07-29T09:00:28;24.58;;;23.67;;
60241;SDS011;46103;52.076;113.488;2023-07-29T09:03:34;28.38;;;27.38;;
60241;SDS011;46103;52.076;113.488;2023-07-29T09:06:41;32.55;;;31.33;;
60241;SDS011;46103;52.076;113.488;2023-07-29T09:09:50;30.25;;;29.20;;
60241;SDS011;46103;52.076;113.488;2023-07-29T09:12:56;27.75;;;26.73;;
60241;SDS011;46103;52.076;113.488;2023-07-29T09:16:07;30.40;;;29.30;;
60241;SDS011;46103;52.076;113.488;2023-07-29T09:19:17;27.05;;;26.15;;
60241;SDS011;46103;52.076;113.488;2023-07-29T09:22:26;29.98;;;28.88;;
60241;SDS011;46103;52.076;113.488;2023-07-29T09:25:36;36.22;;;35.10;;
60241;SDS011;46103;52.076;113.488;2023-07-29T09:28:43;28.20;;;27.10;;
60241;SDS011;46103;52.076;113.488;2023-07-29T09:31:49;26.73;;;25.73;;
60241;SDS011;46103;52.076;113.488;2023-07-29T09:34:55;33.25;;;32.20;;
60241;SDS011;46103;52.076;113.488;2023-07-29T09:38:05;32.22;;;31.10;;
60241;SDS011;46103;52.076;113.488;2023-07-29T09:41:11;29.95;;;28.88;;
60241;SDS011;46103;52.076;113.488;2023-07-29T09:44:18;30.92;;;29.92;;
60241;SDS011;46103;52.076;113.488;2023-07-29T09:47:25;32.70;;;31.40;;
60241;SDS011;46103;52.076;113.488;2023-07-29T09:50:31;36.63;;;35.42;;
60241;SDS011;46103;52.076;113.488;2023-07-29T09:53:44;32.33;;;31.33;;
60241;SDS011;46103;52.076;113.488;2023-07-29T09:56:52;30.70;;;29.58;;
60241;SDS011;46103;52.076;113.488;2023-07-29T09:59:59;32.08;;;30.98;;
60241;SDS011;46103;52.076;113.488;2023-07-29T10:03:10;35.72;;;34.53;;
60241;SDS011;46103;52.076;113.488;2023-07-29T10:06:17;30.85;;;29.75;;
60241;SDS011;46103;52.076;113.488;2023-07-29T10:09:23;27.50;;;26.50;;
60241;SDS011;46103;52.076;113.488;2023-07-29T10:12:33;29.08;;;27.98;;
60241;SDS011;46103;52.076;113.488;2023-07-29T10:15:39;36.65;;;35.42;;
60241;SDS011;46103;52.076;113.488;2023-07-29T10:18:47;31.60;;;30.50;;
60241;SDS011;46103;52.076;113.488;2023-07-29T10:21:52;25.30;;;24.20;;
60241;SDS011;46103;52.076;113.488;2023-07-29T10:25:03;27.95;;;26.85;;
60241;SDS011;46103;52.076;113.488;2023-07-29T10:28:12;25.30;;;24.27;;
60241;SDS011;46103;52.076;113.488;2023-07-29T10:31:20;27.05;;;25.90;;
60241;SDS011;46103;52.076;113.488;2023-07-29T10:34:27;31.80;;;30.67;;
60241;SDS011;46103;52.076;113.488;2023-07-29T10:37:36;32.05;;;30.77;;
60241;SDS011;46103;52.076;113.488;2023-07-29T10:40:51;28.08;;;26.88;;
60241;SDS011;46103;52.076;113.488;2023-07-29T10:44:00;25.05;;;24.15;;
60241;SDS011;46103;52.076;113.488;2023-07-29T10:47:11;26.67;;;25.50;;
60241;SDS011;46103;52.076;113.488;2023-07-29T10:50:18;24.17;;;23.17;;
60241;SDS011;46103;52.076;113.488;2023-07-29T10:53:29;28.77;;;27.67;;
60241;SDS011;46103;52.076;113.488;2023-07-29T10:56:35;23.13;;;22.13;;
60241;SDS011;46103;52.076;113.488;2023-07-29T10:59:57;24.90;;;23.90;;
60241;SDS011;46103;52.076;113.488;2023-07-29T11:03:05;25.85;;;24.77;;
60241;SDS011;46103;52.076;113.488;2023-07-29T11:06:11;20.77;;;19.88;;
60241;SDS011;46103;52.076;113.488;2023-07-29T11:12:47;21.52;;;20.42;;
60241;SDS011;46103;52.076;113.488;2023-07-29T11:15:58;21.65;;;20.75;;
60241;SDS011;46103;52.076;113.488;2023-07-29T11:19:07;22.10;;;21.10;;
60241;SDS011;46103;52.076;113.488;2023-07-29T11:22:19;23.27;;;22.15;;
60241;SDS011;46103;52.076;113.488;2023-07-29T11:25:26;23.05;;;21.88;;
60241;SDS011;46103;52.076;113.488;2023-07-29T11:28:38;24.77;;;23.52;;
60241;SDS011;46103;52.076;113.488;2023-07-29T11:31:44;22.98;;;21.65;;
60241;SDS011;46103;52.076;113.488;2023-07-29T11:34:51;23.25;;;21.88;;
60241;SDS011;46103;52.076;113.488;2023-07-29T11:37:56;20.20;;;19.00;;
60241;SDS011;46103;52.076;113.488;2023-07-29T11:41:03;20.63;;;19.33;;
60241;SDS011;46103;52.076;113.488;2023-07-29T11:47:21;20.73;;;19.08;;
60241;SDS011;46103;52.076;113.488;2023-07-29T11:50:27;17.83;;;16.42;;
60241;SDS011;46103;52.076;113.488;2023-07-29T11:53:34;17.35;;;15.98;;
60241;SDS011;46103;52.076;113.488;2023-07-29T11:56:41;16.88;;;15.38;;
60241;SDS011;46103;52.076;113.488;2023-07-29T12:02:52;13.60;;;12.45;;
60241;SDS011;46103;52.076;113.488;2023-07-29T12:06:01;16.50;;;15.20;;
60241;SDS011;46103;52.076;113.488;2023-07-29T12:09:07;12.75;;;11.52;;
60241;SDS011;46103;52.076;113.488;2023-07-29T12:12:14;11.73;;;10.63;;
60241;SDS011;46103;52.076;113.488;2023-07-29T12:15:27;11.98;;;10.88;;
60241;SDS011;46103;52.076;113.488;2023-07-29T12:18:36;17.38;;;16.08;;
60241;SDS011;46103;52.076;113.488;2023-07-29T12:21:44;10.13;;;9.13;;
60241;SDS011;46103;52.076;113.488;2023-07-29T12:24:58;9.75;;;8.60;;
60241;SDS011;46103;52.076;113.488;2023-07-29T12:28:05;11.65;;;7.82;;
60241;SDS011;46103;52.076;113.488;2023-07-29T12:31:12;10.27;;;8.13;;
60241;SDS011;46103;52.076;113.488;2023-07-29T12:34:31;9.93;;;8.32;;
60241;SDS011;46103;52.076;113.488;2023-07-29T12:38:00;9.35;;;8.43;;
60241;SDS011;46103;52.076;113.488;2023-07-29T12:41:09;10.30;;;8.75;;
60241;SDS011;46103;52.076;113.488;2023-07-29T12:44:16;9.25;;;8.20;;
60241;SDS011;46103;52.076;113.488;2023-07-29T12:47:35;10.52;;;7.97;;
60241;SDS011;46103;52.076;113.488;2023-07-29T12:50:53;11.27;;;8.90;;
60241;SDS011;46103;52.076;113.488;2023-07-29T12:53:59;11.73;;;8.90;;
60241;SDS011;46103;52.076;113.488;2023-07-29T12:57:06;11.18;;;8.07;;
60241;SDS011;46103;52.076;113.488;2023-07-29T13:00:25;10.98;;;7.63;;
60241;SDS011;46103;52.076;113.488;2023-07-29T13:03:33;13.32;;;7.40;;
60241;SDS011;46103;52.076;113.488;2023-07-29T13:06:39;9.43;;;6.90;;
60241;SDS011;46103;52.076;113.488;2023-07-29T13:09:59;9.25;;;6.63;;
60241;SDS011;46103;52.076;113.488;2023-07-29T13:13:17;8.77;;;7.25;;
60241;SDS011;46103;52.076;113.488;2023-07-29T13:16:37;7.70;;;6.53;;
60241;SDS011;46103;52.076;113.488;2023-07-29T13:23:04;7.95;;;6.70;;
60241;SDS011;46103;52.076;113.488;2023-07-29T13:26:22;7.80;;;6.97;;
60241;SDS011;46103;52.076;113.488;2023-07-29T13:29:39;10.10;;;7.63;;
60241;SDS011;46103;52.076;113.488;2023-07-29T13:32:58;8.48;;;7.57;;
60241;SDS011;46103;52.076;113.488;2023-07-29T13:36:20;11.15;;;7.80;;
60241;SDS011;46103;52.076;113.488;2023-07-29T13:39:39;10.23;;;7.57;;
60241;SDS011;46103;52.076;113.488;2023-07-29T13:42:59;11.35;;;8.88;;
60241;SDS011;46103;52.076;113.488;2023-07-29T13:46:19;14.80;;;10.93;;
60241;SDS011;46103;52.076;113.488;2023-07-29T13:49:40;18.50;;;14.70;;
60241;SDS011;46103;52.076;113.488;2023-07-29T13:53:00;19.00;;;13.63;;
60241;SDS011;46103;52.076;113.488;2023-07-29T13:56:21;17.38;;;13.63;;
60241;SDS011;46103;52.076;113.488;2023-07-29T13:59:41;24.88;;;19.92;;
60241;SDS011;46103;52.076;113.488;2023-07-29T14:02:57;14.68;;;11.27;;
60241;SDS011;46103;52.076;113.488;2023-07-29T14:09:37;12.52;;;10.00;;
60241;SDS011;46103;52.076;113.488;2023-07-29T14:12:58;12.88;;;9.85;;
60241;SDS011;46103;52.076;113.488;2023-07-29T14:16:08;11.32;;;9.30;;
60241;SDS011;46103;52.076;113.488;2023-07-29T14:19:27;11.20;;;7.97;;
60241;SDS011;46103;52.076;113.488;2023-07-29T14:22:47;11.07;;;8.27;;
60241;SDS011;46103;52.076;113.488;2023-07-29T14:26:05;10.23;;;6.60;;
60241;SDS011;46103;52.076;113.488;2023-07-29T14:29:28;9.50;;;6.50;;
60241;SDS011;46103;52.076;113.488;2023-07-29T14:32:34;10.07;;;7.47;;
60241;SDS011;46103;52.076;113.488;2023-07-29T14:35:55;11.07;;;7.63;;
60241;SDS011;46103;52.076;113.488;2023-07-29T14:39:04;13.25;;;10.70;;
60241;SDS011;46103;52.076;113.488;2023-07-29T14:42:11;14.85;;;11.55;;
60241;SDS011;46103;52.076;113.488;2023-07-29T14:45:32;14.70;;;10.32;;
60241;SDS011;46103;52.076;113.488;2023-07-29T14:48:38;11.32;;;8.70;;
60241;SDS011;46103;52.076;113.488;2023-07-29T14:51:57;12.32;;;9.00;;
60241;SDS011;46103;52.076;113.488;2023-07-29T14:55:03;14.65;;;10.15;;
60241;SDS011;46103;52.076;113.488;2023-07-29T14:58:23;12.30;;;8.32;;
60241;SDS011;46103;52.076;113.488;2023-07-29T15:01:30;11.88;;;7.63;;
60241;SDS011;46103;52.076;113.488;2023-07-29T15:04:49;12.43;;;8.10;;
60241;SDS011;46103;52.076;113.488;2023-07-29T15:11:04;9.38;;;6.65;;
60241;SDS011;46103;52.076;113.488;2023-07-29T15:14:22;9.80;;;7.10;;
60241;SDS011;46103;52.076;113.488;2023-07-29T15:17:30;9.98;;;6.50;;
60241;SDS011;46103;52.076;113.488;2023-07-29T15:23:56;10.80;;;7.70;;
60241;SDS011;46103;52.076;113.488;2023-07-29T15:27:03;10.00;;;7.20;;
60241;SDS011;46103;52.076;113.488;2023-07-29T15:30:23;10.05;;;7.22;;
60241;SDS011;46103;52.076;113.488;2023-07-29T15:33:30;9.00;;;6.75;;
60241;SDS011;46103;52.076;113.488;2023-07-29T15:39:44;10.10;;;7.35;;
60241;SDS011;46103;52.076;113.488;2023-07-29T15:42:51;9.82;;;7.78;;
60241;SDS011;46103;52.076;113.488;2023-07-29T15:46:00;9.73;;;7.15;;
60241;SDS011;46103;52.076;113.488;2023-07-29T15:49:08;9.90;;;7.80;;
60241;SDS011;46103;52.076;113.488;2023-07-29T15:52:15;11.15;;;7.57;;
60241;SDS011;46103;52.076;113.488;2023-07-29T15:55:22;11.70;;;9.13;;
60241;SDS011;46103;52.076;113.488;2023-07-29T15:58:31;13.82;;;8.63;;
60241;SDS011;46103;52.076;113.488;2023-07-29T16:01:39;13.18;;;9.57;;
60241;SDS011;46103;52.076;113.488;2023-07-29T16:04:46;12.52;;;9.48;;
60241;SDS011;46103;52.076;113.488;2023-07-29T16:07:52;13.15;;;9.13;;
60241;SDS011;46103;52.076;113.488;2023-07-29T16:11:01;10.90;;;7.47;;
60241;SDS011;46103;52.076;113.488;2023-07-29T16:14:09;12.68;;;8.82;;
60241;SDS011;46103;52.076;113.488;2023-07-29T16:17:17;15.25;;;9.48;;
60241;SDS011;46103;52.076;113.488;2023-07-29T16:20:23;16.95;;;11.30;;
60241;SDS011;46103;52.076;113.488;2023-07-29T16:23:32;14.00;;;9.77;;
60241;SDS011;46103;52.076;113.488;2023-07-29T16:26:39;13.98;;;9.30;;
60241;SDS011;46103;52.076;113.488;2023-07-29T16:29:46;15.20;;;9.30;;
60241;SDS011;46103;52.076;113.488;2023-07-29T16:32:56;15.45;;;9.93;;
60241;SDS011;46103;52.076;113.488;2023-07-29T16:36:13;14.90;;;8.82;;
60241;SDS011;46103;52.076;113.488;2023-07-29T16:39:19;10.68;;;8.38;;
60241;SDS011;46103;52.076;113.488;2023-07-29T16:42:26;10.63;;;8.02;;
60241;SDS011;46103;52.076;113.488;2023-07-29T16:45:33;10.38;;;8.52;;
60241;SDS011;46103;52.076;113.488;2023-07-29T16:48:40;19.00;;;12.90;;
60241;SDS011;46103;52.076;113.488;2023-07-29T16:51:46;21.35;;;14.55;;
60241;SDS011;46103;52.076;113.488;2023-07-29T16:54:54;19.05;;;13.90;;
60241;SDS011;46103;52.076;113.488;2023-07-29T16:58:02;21.42;;;14.77;;
60241;SDS011;46103;52.076;113.488;2023-07-29T17:01:10;17.52;;;11.10;;
60241;SDS011;46103;52.076;113.488;2023-07-29T17:04:19;14.48;;;10.52;;
60241;SDS011;46103;52.076;113.488;2023-07-29T17:07:29;13.35;;;9.38;;
60241;SDS011;46103;52.076;113.488;2023-07-29T17:10:36;14.27;;;9.63;;
60241;SDS011;46103;52.076;113.488;2023-07-29T17:13:43;13.05;;;8.75;;
60241;SDS011;46103;52.076;113.488;2023-07-29T17:16:49;14.90;;;10.35;;
60241;SDS011;46103;52.076;113.488;2023-07-29T17:19:59;16.08;;;11.18;;
60241;SDS011;46103;52.076;113.488;2023-07-29T17:23:04;15.80;;;10.77;;
60241;SDS011;46103;52.076;113.488;2023-07-29T17:26:11;16.17;;;12.95;;
60241;SDS011;46103;52.076;113.488;2023-07-29T17:29:18;17.95;;;13.02;;
60241;SDS011;46103;52.076;113.488;2023-07-29T17:32:31;15.70;;;11.80;;
60241;SDS011;46103;52.076;113.488;2023-07-29T17:35:41;14.50;;;10.00;;
60241;SDS011;46103;52.076;113.488;2023-07-29T17:38:51;14.52;;;10.57;;
60241;SDS011;46103;52.076;113.488;2023-07-29T17:41:56;15.88;;;11.70;;
60241;SDS011;46103;52.076;113.488;2023-07-29T17:45:05;15.15;;;10.50;;
60241;SDS011;46103;52.076;113.488;2023-07-29T17:48:13;16.38;;;10.88;;
60241;SDS011;46103;52.076;113.488;2023-07-29T17:51:19;15.75;;;12.13;;
60241;SDS011;46103;52.076;113.488;2023-07-29T17:54:25;16.33;;;10.82;;
60241;SDS011;46103;52.076;113.488;2023-07-29T17:57:32;15.68;;;11.38;;
60241;SDS011;46103;52.076;113.488;2023-07-29T18:00:37;15.68;;;11.30;;
60241;SDS011;46103;52.076;113.488;2023-07-29T18:03:44;16.55;;;12.40;;
60241;SDS011;46103;52.076;113.488;2023-07-29T18:06:51;19.55;;;12.93;;
60241;SDS011;46103;52.076;113.488;2023-07-29T18:10:01;16.00;;;11.75;;
60241;SDS011;46103;52.076;113.488;2023-07-29T18:13:09;14.38;;;10.63;;
60241;SDS011;46103;52.076;113.488;2023-07-29T18:16:18;17.80;;;11.30;;
60241;SDS011;46103;52.076;113.488;2023-07-29T18:19:26;16.67;;;11.52;;
60241;SDS011;46103;52.076;113.488;2023-07-29T18:22:34;15.25;;;10.43;;
60241;SDS011;46103;52.076;113.488;2023-07-29T18:25:44;14.57;;;10.88;;
60241;SDS011;46103;52.076;113.488;2023-07-29T18:28:49;13.90;;;9.82;;
60241;SDS011;46103;52.076;113.488;2023-07-29T18:31:59;14.27;;;10.85;;
60241;SDS011;46103;52.076;113.488;2023-07-29T18:35:13;19.02;;;15.18;;
60241;SDS011;46103;52.076;113.488;2023-07-29T18:38:25;18.70;;;13.48;;
60241;SDS011;46103;52.076;113.488;2023-07-29T18:41:32;15.43;;;11.13;;
60241;SDS011;46103;52.076;113.488;2023-07-29T18:44:39;14.82;;;10.90;;
60241;SDS011;46103;52.076;113.488;2023-07-29T18:47:46;13.27;;;10.18;;
60241;SDS011;46103;52.076;113.488;2023-07-29T18:50:54;15.65;;;10.38;;
60241;SDS011;46103;52.076;113.488;2023-07-29T18:54:00;11.68;;;9.70;;
60241;SDS011;46103;52.076;113.488;2023-07-29T18:57:20;17.00;;;11.82;;
60241;SDS011;46103;52.076;113.488;2023-07-29T19:00:26;18.23;;;11.52;;
60241;SDS011;46103;52.076;113.488;2023-07-29T19:03:33;16.40;;;9.93;;
60241;SDS011;46103;52.076;113.488;2023-07-29T19:06:52;14.63;;;9.70;;
60241;SDS011;46103;52.076;113.488;2023-07-29T19:13:05;12.60;;;9.57;;
60241;SDS011;46103;52.076;113.488;2023-07-29T19:16:12;12.40;;;8.73;;